sensor_id;sensor_type;location;lat;lon;timestamp;P1;durP1;ratioP1;P2;durP2;ratioP2
64950;SDS011;51482;47.014;7.652;2023-07-31T00:01:47;2.70;;;2.50;;
64950;SDS011;51482;47.014;7.652;2023-07-31T00:04:13;4.72;;;2.20;;
64950;SDS011;51482;47.014;7.652;2023-07-31T00:06:38;4.07;;;2.55;;
64950;SDS011;51482;47.014;7.652;2023-07-31T00:09:04;4.88;;;2.97;;
64950;SDS011;51482;47.014;7.652;2023-07-31T00:11:29;3.25;;;2.53;;
64950;SDS011;51482;47.014;7.652;2023-07-31T00:13:55;3.20;;;2.53;;
64950;SDS011;51482;47.014;7.652;2023-07-31T00:16:20;3.47;;;2.50;;
64950;SDS011;51482;47.014;7.652;2023-07-31T00:18:46;3.83;;;2.92;;
64950;SDS011;51482;47.014;7.652;2023-07-31T00:21:11;5.05;;;2.60;;
64950;SDS011;51482;47.014;7.652;2023-07-31T00:23:37;2.70;;;2.50;;
64950;SDS011;51482;47.014;7.652;2023-07-31T00:26:02;3.55;;;2.13;;
64950;SDS011;51482;47.014;7.652;2023-07-31T00:28:28;4.50;;;2.78;;
64950;SDS011;51482;47.014;7.652;2023-07-31T00:30:54;3.45;;;2.50;;
64950;SDS011;51482;47.014;7.652;2023-07-31T00:33:19;4.53;;;2.80;;
64950;SDS011;51482;47.014;7.652;2023-07-31T00:35:45;2.80;;;2.60;;
64950;SDS011;51482;47.014;7.652;2023-07-31T00:38:10;2.80;;;2.47;;
64950;SDS011;51482;47.014;7.652;2023-07-31T00:40:36;2.92;;;2.72;;
64950;SDS011;51482;47.014;7.652;2023-07-31T00:43:02;3.55;;;2.63;;
64950;SDS011;51482;47.014;7.652;2023-07-31T00:45:29;2.80;;;2.60;;
64950;SDS011;51482;47.014;7.652;2023-07-31T00:47:55;3.08;;;2.55;;
64950;SDS011;51482;47.014;7.652;2023-07-31T00:50:22;3.28;;;2.60;;
64950;SDS011;51482;47.014;7.652;2023-07-31T00:52:49;3.72;;;2.90;;
64950;SDS011;51482;47.014;7.652;2023-07-31T00:55:15;5.15;;;2.55;;
64950;SDS011;51482;47.014;7.652;2023-07-31T00:57:41;2.97;;;2.53;;
64950;SDS011;51482;47.014;7.652;2023-07-31T01:00:07;2.90;;;2.70;;
64950;SDS011;51482;47.014;7.652;2023-07-31T01:02:33;5.10;;;3.63;;
64950;SDS011;51482;47.014;7.652;2023-07-31T01:04:59;3.05;;;2.60;;
64950;SDS011;51482;47.014;7.652;2023-07-31T01:07:27;3.08;;;2.63;;
64950;SDS011;51482;47.014;7.652;2023-07-31T01:10:08;3.50;;;2.63;;
64950;SDS011;51482;47.014;7.652;2023-07-31T01:12:46;3.70;;;3.00;;
64950;SDS011;51482;47.014;7.652;2023-07-31T01:15:13;3.40;;;2.28;;
64950;SDS011;51482;47.014;7.652;2023-07-31T01:17:40;2.80;;;2.60;;
64950;SDS011;51482;47.014;7.652;2023-07-31T01:20:10;7.28;;;2.72;;
64950;SDS011;51482;47.014;7.652;2023-07-31T01:22:46;2.70;;;2.45;;
64950;SDS011;51482;47.014;7.652;2023-07-31T01:25:28;4.47;;;2.50;;
64950;SDS011;51482;47.014;7.652;2023-07-31T01:28:25;2.70;;;2.25;;
64950;SDS011;51482;47.014;7.652;2023-07-31T01:30:59;4.60;;;2.55;;
64950;SDS011;51482;47.014;7.652;2023-07-31T01:33:27;2.78;;;2.50;;
64950;SDS011;51482;47.014;7.652;2023-07-31T01:35:53;3.42;;;2.50;;
64950;SDS011;51482;47.014;7.652;2023-07-31T01:38:21;2.70;;;2.50;;
64950;SDS011;51482;47.014;7.652;2023-07-31T01:40:50;3.20;;;2.72;;
64950;SDS011;51482;47.014;7.652;2023-07-31T01:43:17;3.10;;;2.50;;
64950;SDS011;51482;47.014;7.652;2023-07-31T01:45:43;3.50;;;2.90;;
64950;SDS011;51482;47.014;7.652;2023-07-31T01:48:08;3.00;;;2.63;;
64950;SDS011;51482;47.014;7.652;2023-07-31T01:50:34;6.63;;;2.40;;
64950;SDS011;51482;47.014;7.652;2023-07-31T01:52:59;4.47;;;2.30;;
64950;SDS011;51482;47.014;7.652;2023-07-31T01:55:25;2.95;;;2.38;;
64950;SDS011;51482;47.014;7.652;2023-07-31T01:57:51;3.58;;;2.65;;
64950;SDS011;51482;47.014;7.652;2023-07-31T02:00:17;3.30;;;2.58;;
64950;SDS011;51482;47.014;7.652;2023-07-31T02:02:43;3.15;;;2.83;;
64950;SDS011;51482;47.014;7.652;2023-07-31T02:05:08;3.28;;;2.60;;
64950;SDS011;51482;47.014;7.652;2023-07-31T02:07:34;4.15;;;2.53;;
64950;SDS011;51482;47.014;7.652;2023-07-31T02:09:59;3.33;;;2.75;;
64950;SDS011;51482;47.014;7.652;2023-07-31T02:12:25;3.00;;;2.70;;
64950;SDS011;51482;47.014;7.652;2023-07-31T02:14:50;6.35;;;2.85;;
64950;SDS011;51482;47.014;7.652;2023-07-31T02:17:16;4.07;;;2.95;;
64950;SDS011;51482;47.014;7.652;2023-07-31T02:19:41;4.40;;;2.70;;
64950;SDS011;51482;47.014;7.652;2023-07-31T02:22:07;2.70;;;2.50;;
64950;SDS011;51482;47.014;7.652;2023-07-31T02:24:33;2.97;;;2.67;;
64950;SDS011;51482;47.014;7.652;2023-07-31T02:26:58;2.63;;;2.40;;
64950;SDS011;51482;47.014;7.652;2023-07-31T02:29:24;3.80;;;3.05;;
64950;SDS011;51482;47.014;7.652;2023-07-31T02:31:49;3.35;;;3.00;;
64950;SDS011;51482;47.014;7.652;2023-07-31T02:34:15;2.80;;;2.08;;
64950;SDS011;51482;47.014;7.652;2023-07-31T02:36:40;3.90;;;2.67;;
64950;SDS011;51482;47.014;7.652;2023-07-31T02:39:06;3.30;;;2.53;;
64950;SDS011;51482;47.014;7.652;2023-07-31T02:41:31;3.70;;;2.97;;
64950;SDS011;51482;47.014;7.652;2023-07-31T02:43:57;3.85;;;2.63;;
64950;SDS011;51482;47.014;7.652;2023-07-31T02:46:22;3.13;;;2.63;;
64950;SDS011;51482;47.014;7.652;2023-07-31T02:48:49;3.53;;;3.08;;
64950;SDS011;51482;47.014;7.652;2023-07-31T02:51:16;3.47;;;2.83;;
64950;SDS011;51482;47.014;7.652;2023-07-31T02:53:42;3.50;;;2.83;;
64950;SDS011;51482;47.014;7.652;2023-07-31T02:56:07;3.80;;;2.38;;
64950;SDS011;51482;47.014;7.652;2023-07-31T02:58:33;2.78;;;2.47;;
64950;SDS011;51482;47.014;7.652;2023-07-31T03:00:58;4.50;;;2.90;;
64950;SDS011;51482;47.014;7.652;2023-07-31T03:03:24;2.78;;;2.58;;
64950;SDS011;51482;47.014;7.652;2023-07-31T03:05:49;3.35;;;2.50;;
64950;SDS011;51482;47.014;7.652;2023-07-31T03:08:15;2.50;;;2.30;;
64950;SDS011;51482;47.014;7.652;2023-07-31T03:10:41;4.00;;;2.90;;
64950;SDS011;51482;47.014;7.652;2023-07-31T03:13:06;3.30;;;2.58;;
64950;SDS011;51482;47.014;7.652;2023-07-31T03:15:32;2.83;;;2.40;;
64950;SDS011;51482;47.014;7.652;2023-07-31T03:17:57;3.10;;;2.80;;
64950;SDS011;51482;47.014;7.652;2023-07-31T03:20:23;2.92;;;2.67;;
64950;SDS011;51482;47.014;7.652;2023-07-31T03:22:48;3.25;;;2.65;;
64950;SDS011;51482;47.014;7.652;2023-07-31T03:25:14;2.63;;;2.42;;
64950;SDS011;51482;47.014;7.652;2023-07-31T03:27:40;6.43;;;2.97;;
64950;SDS011;51482;47.014;7.652;2023-07-31T03:30:05;4.80;;;2.80;;
64950;SDS011;51482;47.014;7.652;2023-07-31T03:32:31;3.30;;;2.42;;
64950;SDS011;51482;47.014;7.652;2023-07-31T03:34:57;5.13;;;2.50;;
64950;SDS011;51482;47.014;7.652;2023-07-31T03:37:23;5.10;;;2.50;;
64950;SDS011;51482;47.014;7.652;2023-07-31T03:39:49;4.47;;;2.97;;
64950;SDS011;51482;47.014;7.652;2023-07-31T03:42:14;5.33;;;3.10;;
64950;SDS011;51482;47.014;7.652;2023-07-31T03:44:40;3.30;;;3.00;;
64950;SDS011;51482;47.014;7.652;2023-07-31T03:47:05;4.45;;;2.88;;
64950;SDS011;51482;47.014;7.652;2023-07-31T03:49:31;4.63;;;3.22;;
64950;SDS011;51482;47.014;7.652;2023-07-31T03:51:57;5.90;;;3.20;;
64950;SDS011;51482;47.014;7.652;2023-07-31T03:54:22;3.00;;;2.80;;
64950;SDS011;51482;47.014;7.652;2023-07-31T03:56:48;4.30;;;3.07;;
64950;SDS011;51482;47.014;7.652;2023-07-31T03:59:14;3.50;;;2.90;;
64950;SDS011;51482;47.014;7.652;2023-07-31T04:01:40;4.90;;;2.73;;
64950;SDS011;51482;47.014;7.652;2023-07-31T04:04:05;3.50;;;2.80;;
64950;SDS011;51482;47.014;7.652;2023-07-31T04:06:31;5.47;;;2.60;;
64950;SDS011;51482;47.014;7.652;2023-07-31T04:08:56;5.67;;;3.10;;
64950;SDS011;51482;47.014;7.652;2023-07-31T04:11:22;7.77;;;3.50;;
64950;SDS011;51482;47.014;7.652;2023-07-31T04:13:47;5.82;;;4.00;;
64950;SDS011;51482;47.014;7.652;2023-07-31T04:16:13;7.03;;;3.60;;
64950;SDS011;51482;47.014;7.652;2023-07-31T04:18:38;5.13;;;3.63;;
64950;SDS011;51482;47.014;7.652;2023-07-31T04:21:04;4.20;;;3.20;;
64950;SDS011;51482;47.014;7.652;2023-07-31T04:23:29;7.47;;;3.80;;
64950;SDS011;51482;47.014;7.652;2023-07-31T04:25:55;3.83;;;2.80;;
64950;SDS011;51482;47.014;7.652;2023-07-31T04:28:21;3.28;;;2.97;;
64950;SDS011;51482;47.014;7.652;2023-07-31T04:30:46;3.00;;;2.70;;
64950;SDS011;51482;47.014;7.652;2023-07-31T04:33:12;2.53;;;2.13;;
64950;SDS011;51482;47.014;7.652;2023-07-31T04:35:38;3.97;;;2.47;;
64950;SDS011;51482;47.014;7.652;2023-07-31T04:38:03;4.22;;;2.58;;
64950;SDS011;51482;47.014;7.652;2023-07-31T04:40:29;3.80;;;2.38;;
64950;SDS011;51482;47.014;7.652;2023-07-31T04:42:55;3.25;;;2.78;;
64950;SDS011;51482;47.014;7.652;2023-07-31T04:45:20;3.47;;;2.65;;
64950;SDS011;51482;47.014;7.652;2023-07-31T04:47:46;3.83;;;2.58;;
64950;SDS011;51482;47.014;7.652;2023-07-31T04:50:11;3.58;;;2.17;;
64950;SDS011;51482;47.014;7.652;2023-07-31T04:52:37;2.78;;;2.50;;
64950;SDS011;51482;47.014;7.652;2023-07-31T04:55:02;3.05;;;2.30;;
64950;SDS011;51482;47.014;7.652;2023-07-31T04:57:28;2.75;;;2.55;;
64950;SDS011;51482;47.014;7.652;2023-07-31T04:59:54;2.85;;;2.50;;
64950;SDS011;51482;47.014;7.652;2023-07-31T05:02:19;2.80;;;2.50;;
64950;SDS011;51482;47.014;7.652;2023-07-31T05:04:45;4.43;;;2.75;;
64950;SDS011;51482;47.014;7.652;2023-07-31T05:07:10;3.83;;;2.20;;
64950;SDS011;51482;47.014;7.652;2023-07-31T05:09:36;3.67;;;2.50;;
64950;SDS011;51482;47.014;7.652;2023-07-31T05:12:01;4.60;;;2.60;;
64950;SDS011;51482;47.014;7.652;2023-07-31T05:14:29;4.28;;;2.42;;
64950;SDS011;51482;47.014;7.652;2023-07-31T05:16:55;4.63;;;2.70;;
64950;SDS011;51482;47.014;7.652;2023-07-31T05:19:20;6.60;;;2.45;;
64950;SDS011;51482;47.014;7.652;2023-07-31T05:21:46;2.88;;;2.63;;
64950;SDS011;51482;47.014;7.652;2023-07-31T05:24:11;4.57;;;2.70;;
64950;SDS011;51482;47.014;7.652;2023-07-31T05:26:37;4.35;;;2.72;;
64950;SDS011;51482;47.014;7.652;2023-07-31T05:29:02;4.60;;;2.20;;
64950;SDS011;51482;47.014;7.652;2023-07-31T05:31:28;2.72;;;2.53;;
64950;SDS011;51482;47.014;7.652;2023-07-31T05:33:54;2.78;;;2.58;;
64950;SDS011;51482;47.014;7.652;2023-07-31T05:36:20;4.27;;;2.47;;
64950;SDS011;51482;47.014;7.652;2023-07-31T05:38:45;2.75;;;2.53;;
64950;SDS011;51482;47.014;7.652;2023-07-31T05:41:11;2.50;;;2.30;;
64950;SDS011;51482;47.014;7.652;2023-07-31T05:43:37;4.87;;;2.63;;
64950;SDS011;51482;47.014;7.652;2023-07-31T05:46:03;4.85;;;2.50;;
64950;SDS011;51482;47.014;7.652;2023-07-31T05:48:29;3.00;;;2.47;;
64950;SDS011;51482;47.014;7.652;2023-07-31T05:50:54;3.95;;;2.38;;
64950;SDS011;51482;47.014;7.652;2023-07-31T05:53:20;2.50;;;2.30;;
64950;SDS011;51482;47.014;7.652;2023-07-31T05:55:45;4.00;;;2.78;;
64950;SDS011;51482;47.014;7.652;2023-07-31T05:58:11;4.38;;;2.55;;
64950;SDS011;51482;47.014;7.652;2023-07-31T06:00:36;3.42;;;2.30;;
64950;SDS011;51482;47.014;7.652;2023-07-31T06:03:02;5.15;;;2.33;;
64950;SDS011;51482;47.014;7.652;2023-07-31T06:05:28;3.05;;;2.30;;
64950;SDS011;51482;47.014;7.652;2023-07-31T06:07:56;2.80;;;2.50;;
64950;SDS011;51482;47.014;7.652;2023-07-31T06:10:22;2.60;;;2.33;;
64950;SDS011;51482;47.014;7.652;2023-07-31T06:12:47;3.25;;;2.90;;
64950;SDS011;51482;47.014;7.652;2023-07-31T06:15:13;5.22;;;2.50;;
64950;SDS011;51482;47.014;7.652;2023-07-31T06:17:38;2.72;;;2.53;;
64950;SDS011;51482;47.014;7.652;2023-07-31T06:20:05;2.95;;;2.38;;
64950;SDS011;51482;47.014;7.652;2023-07-31T06:22:31;4.05;;;2.28;;
64950;SDS011;51482;47.014;7.652;2023-07-31T06:24:57;3.38;;;2.28;;
64950;SDS011;51482;47.014;7.652;2023-07-31T06:27:23;5.15;;;2.60;;
64950;SDS011;51482;47.014;7.652;2023-07-31T06:29:49;4.47;;;2.70;;
64950;SDS011;51482;47.014;7.652;2023-07-31T06:32:14;2.75;;;2.55;;
64950;SDS011;51482;47.014;7.652;2023-07-31T06:34:40;3.70;;;2.85;;
64950;SDS011;51482;47.014;7.652;2023-07-31T06:37:05;4.55;;;2.30;;
64950;SDS011;51482;47.014;7.652;2023-07-31T06:39:31;4.43;;;2.50;;
64950;SDS011;51482;47.014;7.652;2023-07-31T06:41:57;5.13;;;2.45;;
64950;SDS011;51482;47.014;7.652;2023-07-31T06:44:22;3.15;;;2.53;;
64950;SDS011;51482;47.014;7.652;2023-07-31T06:46:48;3.13;;;2.40;;
64950;SDS011;51482;47.014;7.652;2023-07-31T06:49:13;6.20;;;2.47;;
64950;SDS011;51482;47.014;7.652;2023-07-31T06:51:42;2.92;;;2.72;;
64950;SDS011;51482;47.014;7.652;2023-07-31T06:54:09;5.35;;;2.20;;
64950;SDS011;51482;47.014;7.652;2023-07-31T06:56:34;2.72;;;2.22;;
64950;SDS011;51482;47.014;7.652;2023-07-31T06:59:00;3.80;;;2.20;;
64950;SDS011;51482;47.014;7.652;2023-07-31T07:01:26;3.00;;;2.50;;
64950;SDS011;51482;47.014;7.652;2023-07-31T07:03:52;3.47;;;2.30;;
64950;SDS011;51482;47.014;7.652;2023-07-31T07:06:18;3.22;;;2.25;;
64950;SDS011;51482;47.014;7.652;2023-07-31T07:08:44;4.43;;;2.97;;
64950;SDS011;51482;47.014;7.652;2023-07-31T07:11:09;2.78;;;2.25;;
64950;SDS011;51482;47.014;7.652;2023-07-31T07:13:35;3.25;;;2.50;;
64950;SDS011;51482;47.014;7.652;2023-07-31T07:16:01;5.00;;;2.78;;
64950;SDS011;51482;47.014;7.652;2023-07-31T07:18:26;5.07;;;3.10;;
64950;SDS011;51482;47.014;7.652;2023-07-31T07:20:52;2.85;;;2.50;;
64950;SDS011;51482;47.014;7.652;2023-07-31T07:23:19;2.70;;;2.50;;
64950;SDS011;51482;47.014;7.652;2023-07-31T07:25:46;4.95;;;2.60;;
64950;SDS011;51482;47.014;7.652;2023-07-31T07:28:12;6.82;;;3.42;;
64950;SDS011;51482;47.014;7.652;2023-07-31T07:30:38;6.45;;;2.97;;
64950;SDS011;51482;47.014;7.652;2023-07-31T07:33:04;4.55;;;2.60;;
64950;SDS011;51482;47.014;7.652;2023-07-31T07:35:30;4.32;;;2.08;;
64950;SDS011;51482;47.014;7.652;2023-07-31T07:37:58;4.03;;;2.40;;
64950;SDS011;51482;47.014;7.652;2023-07-31T07:40:24;4.70;;;2.30;;
64950;SDS011;51482;47.014;7.652;2023-07-31T07:42:49;4.65;;;2.65;;
64950;SDS011;51482;47.014;7.652;2023-07-31T07:45:15;4.88;;;2.50;;
64950;SDS011;51482;47.014;7.652;2023-07-31T07:47:41;4.47;;;2.40;;
64950;SDS011;51482;47.014;7.652;2023-07-31T07:50:07;3.03;;;2.22;;
64950;SDS011;51482;47.014;7.652;2023-07-31T07:52:33;6.00;;;2.35;;
64950;SDS011;51482;47.014;7.652;2023-07-31T07:54:58;3.30;;;2.33;;
64950;SDS011;51482;47.014;7.652;2023-07-31T07:57:25;2.45;;;2.25;;
64950;SDS011;51482;47.014;7.652;2023-07-31T07:59:50;2.70;;;1.98;;
64950;SDS011;51482;47.014;7.652;2023-07-31T08:02:16;3.78;;;1.90;;
64950;SDS011;51482;47.014;7.652;2023-07-31T08:04:42;3.20;;;2.58;;
64950;SDS011;51482;47.014;7.652;2023-07-31T08:07:07;4.80;;;2.17;;
64950;SDS011;51482;47.014;7.652;2023-07-31T08:09:35;3.22;;;2.00;;
64950;SDS011;51482;47.014;7.652;2023-07-31T08:12:01;4.03;;;2.30;;
64950;SDS011;51482;47.014;7.652;2023-07-31T08:14:28;4.82;;;2.22;;
64950;SDS011;51482;47.014;7.652;2023-07-31T08:16:54;3.90;;;2.28;;
64950;SDS011;51482;47.014;7.652;2023-07-31T08:19:19;2.40;;;2.10;;
64950;SDS011;51482;47.014;7.652;2023-07-31T08:21:45;3.75;;;2.40;;
64950;SDS011;51482;47.014;7.652;2023-07-31T08:24:10;2.72;;;1.98;;
64950;SDS011;51482;47.014;7.652;2023-07-31T08:26:36;2.65;;;2.00;;
64950;SDS011;51482;47.014;7.652;2023-07-31T08:29:01;2.25;;;1.95;;
64950;SDS011;51482;47.014;7.652;2023-07-31T08:31:27;3.38;;;2.00;;
64950;SDS011;51482;47.014;7.652;2023-07-31T08:33:54;3.30;;;2.20;;
64950;SDS011;51482;47.014;7.652;2023-07-31T08:36:19;3.88;;;2.30;;
64950;SDS011;51482;47.014;7.652;2023-07-31T08:38:45;2.50;;;1.90;;
64950;SDS011;51482;47.014;7.652;2023-07-31T08:41:11;3.30;;;2.10;;
64950;SDS011;51482;47.014;7.652;2023-07-31T08:43:38;4.65;;;2.25;;
64950;SDS011;51482;47.014;7.652;2023-07-31T08:46:04;3.05;;;2.40;;
64950;SDS011;51482;47.014;7.652;2023-07-31T08:48:30;2.90;;;2.20;;
64950;SDS011;51482;47.014;7.652;2023-07-31T08:50:57;3.92;;;2.15;;
64950;SDS011;51482;47.014;7.652;2023-07-31T08:53:22;3.30;;;2.17;;
64950;SDS011;51482;47.014;7.652;2023-07-31T08:55:48;4.75;;;2.50;;
64950;SDS011;51482;47.014;7.652;2023-07-31T08:58:14;1.88;;;1.77;;
64950;SDS011;51482;47.014;7.652;2023-07-31T09:00:40;2.33;;;2.10;;
64950;SDS011;51482;47.014;7.652;2023-07-31T09:03:09;4.18;;;2.05;;
64950;SDS011;51482;47.014;7.652;2023-07-31T09:05:45;6.32;;;2.50;;
64950;SDS011;51482;47.014;7.652;2023-07-31T09:08:15;3.35;;;2.22;;
64950;SDS011;51482;47.014;7.652;2023-07-31T09:10:45;4.60;;;2.55;;
64950;SDS011;51482;47.014;7.652;2023-07-31T09:13:12;3.78;;;2.60;;
64950;SDS011;51482;47.014;7.652;2023-07-31T09:15:39;3.45;;;2.53;;
64950;SDS011;51482;47.014;7.652;2023-07-31T09:18:05;3.30;;;2.10;;
64950;SDS011;51482;47.014;7.652;2023-07-31T09:20:32;2.88;;;2.30;;
64950;SDS011;51482;47.014;7.652;2023-07-31T09:23:09;2.85;;;2.13;;
64950;SDS011;51482;47.014;7.652;2023-07-31T09:25:36;3.33;;;2.20;;
64950;SDS011;51482;47.014;7.652;2023-07-31T09:30:43;2.60;;;2.03;;
64950;SDS011;51482;47.014;7.652;2023-07-31T09:33:11;3.42;;;2.50;;
64950;SDS011;51482;47.014;7.652;2023-07-31T09:35:36;3.58;;;2.50;;
64950;SDS011;51482;47.014;7.652;2023-07-31T09:38:09;7.55;;;2.22;;
64950;SDS011;51482;47.014;7.652;2023-07-31T09:40:37;3.65;;;2.33;;
64950;SDS011;51482;47.014;7.652;2023-07-31T09:43:05;1.95;;;1.70;;
64950;SDS011;51482;47.014;7.652;2023-07-31T09:45:35;2.78;;;2.25;;
64950;SDS011;51482;47.014;7.652;2023-07-31T09:48:02;3.40;;;2.47;;
64950;SDS011;51482;47.014;7.652;2023-07-31T09:50:29;3.33;;;1.92;;
64950;SDS011;51482;47.014;7.652;2023-07-31T09:52:56;2.80;;;2.08;;
64950;SDS011;51482;47.014;7.652;2023-07-31T09:55:21;3.92;;;2.25;;
64950;SDS011;51482;47.014;7.652;2023-07-31T09:57:48;2.40;;;2.20;;
64950;SDS011;51482;47.014;7.652;2023-07-31T10:00:17;2.97;;;2.05;;
64950;SDS011;51482;47.014;7.652;2023-07-31T10:02:47;2.58;;;2.33;;
64950;SDS011;51482;47.014;7.652;2023-07-31T10:05:14;2.30;;;2.05;;
64950;SDS011;51482;47.014;7.652;2023-07-31T10:07:41;2.40;;;2.20;;
64950;SDS011;51482;47.014;7.652;2023-07-31T10:10:10;3.67;;;2.33;;
64950;SDS011;51482;47.014;7.652;2023-07-31T10:12:38;3.08;;;2.30;;
64950;SDS011;51482;47.014;7.652;2023-07-31T10:15:04;4.03;;;2.42;;
64950;SDS011;51482;47.014;7.652;2023-07-31T10:17:30;2.38;;;2.17;;
64950;SDS011;51482;47.014;7.652;2023-07-31T10:19:57;2.95;;;2.40;;
64950;SDS011;51482;47.014;7.652;2023-07-31T10:22:24;2.63;;;2.42;;
64950;SDS011;51482;47.014;7.652;2023-07-31T10:24:50;3.50;;;2.33;;
64950;SDS011;51482;47.014;7.652;2023-07-31T10:27:19;3.90;;;2.22;;
64950;SDS011;51482;47.014;7.652;2023-07-31T10:29:45;4.10;;;2.20;;
64950;SDS011;51482;47.014;7.652;2023-07-31T10:32:13;4.88;;;2.15;;
64950;SDS011;51482;47.014;7.652;2023-07-31T10:34:39;3.17;;;2.20;;
64950;SDS011;51482;47.014;7.652;2023-07-31T10:40:05;4.07;;;2.47;;
64950;SDS011;51482;47.014;7.652;2023-07-31T10:42:35;2.20;;;1.98;;
64950;SDS011;51482;47.014;7.652;2023-07-31T10:45:10;3.67;;;2.13;;
64950;SDS011;51482;47.014;7.652;2023-07-31T10:47:39;3.53;;;2.13;;
64950;SDS011;51482;47.014;7.652;2023-07-31T10:50:20;2.65;;;1.92;;
64950;SDS011;51482;47.014;7.652;2023-07-31T10:52:49;2.90;;;2.22;;
64950;SDS011;51482;47.014;7.652;2023-07-31T10:55:29;4.07;;;2.03;;
64950;SDS011;51482;47.014;7.652;2023-07-31T10:57:58;2.10;;;1.90;;
64950;SDS011;51482;47.014;7.652;2023-07-31T11:00:40;3.60;;;2.28;;
64950;SDS011;51482;47.014;7.652;2023-07-31T11:03:12;3.88;;;2.00;;
64950;SDS011;51482;47.014;7.652;2023-07-31T11:05:43;3.22;;;2.03;;
64950;SDS011;51482;47.014;7.652;2023-07-31T11:08:16;4.00;;;2.47;;
64950;SDS011;51482;47.014;7.652;2023-07-31T11:10:47;2.08;;;1.90;;
64950;SDS011;51482;47.014;7.652;2023-07-31T11:13:14;4.28;;;2.05;;
64950;SDS011;51482;47.014;7.652;2023-07-31T11:15:40;2.30;;;2.10;;
64950;SDS011;51482;47.014;7.652;2023-07-31T11:18:06;2.97;;;2.03;;
64950;SDS011;51482;47.014;7.652;2023-07-31T11:20:33;4.13;;;2.28;;
64950;SDS011;51482;47.014;7.652;2023-07-31T11:23:03;2.85;;;2.25;;
64950;SDS011;51482;47.014;7.652;2023-07-31T11:25:32;2.55;;;2.20;;
64950;SDS011;51482;47.014;7.652;2023-07-31T11:28:05;3.47;;;2.25;;
64950;SDS011;51482;47.014;7.652;2023-07-31T11:30:31;3.25;;;2.40;;
64950;SDS011;51482;47.014;7.652;2023-07-31T11:32:57;3.55;;;2.08;;
64950;SDS011;51482;47.014;7.652;2023-07-31T11:35:24;3.03;;;2.30;;
64950;SDS011;51482;47.014;7.652;2023-07-31T11:37:49;5.78;;;2.20;;
64950;SDS011;51482;47.014;7.652;2023-07-31T11:40:15;4.10;;;2.22;;
64950;SDS011;51482;47.014;7.652;2023-07-31T11:42:41;3.22;;;2.33;;
64950;SDS011;51482;47.014;7.652;2023-07-31T11:45:07;4.20;;;2.15;;
64950;SDS011;51482;47.014;7.652;2023-07-31T11:47:34;2.50;;;2.30;;
64950;SDS011;51482;47.014;7.652;2023-07-31T11:50:01;4.25;;;2.40;;
64950;SDS011;51482;47.014;7.652;2023-07-31T11:52:32;2.28;;;2.08;;
64950;SDS011;51482;47.014;7.652;2023-07-31T11:55:02;3.08;;;2.47;;
64950;SDS011;51482;47.014;7.652;2023-07-31T11:57:29;3.30;;;2.38;;
64950;SDS011;51482;47.014;7.652;2023-07-31T11:59:55;2.33;;;2.08;;
64950;SDS011;51482;47.014;7.652;2023-07-31T12:02:22;2.25;;;1.90;;
64950;SDS011;51482;47.014;7.652;2023-07-31T12:04:47;3.65;;;2.30;;
64950;SDS011;51482;47.014;7.652;2023-07-31T12:07:13;3.75;;;2.20;;
64950;SDS011;51482;47.014;7.652;2023-07-31T12:09:50;3.95;;;2.30;;
64950;SDS011;51482;47.014;7.652;2023-07-31T12:12:20;2.50;;;2.20;;
64950;SDS011;51482;47.014;7.652;2023-07-31T12:14:47;3.33;;;2.20;;
64950;SDS011;51482;47.014;7.652;2023-07-31T12:17:12;3.25;;;1.80;;
64950;SDS011;51482;47.014;7.652;2023-07-31T12:19:39;3.55;;;2.28;;
64950;SDS011;51482;47.014;7.652;2023-07-31T12:22:12;2.45;;;1.90;;
64950;SDS011;51482;47.014;7.652;2023-07-31T12:24:39;5.68;;;2.20;;
64950;SDS011;51482;47.014;7.652;2023-07-31T12:27:09;3.97;;;2.58;;
64950;SDS011;51482;47.014;7.652;2023-07-31T12:29:36;4.18;;;2.63;;
64950;SDS011;51482;47.014;7.652;2023-07-31T12:32:02;3.28;;;2.13;;
64950;SDS011;51482;47.014;7.652;2023-07-31T12:34:28;3.55;;;2.50;;
64950;SDS011;51482;47.014;7.652;2023-07-31T12:36:53;2.20;;;1.98;;
64950;SDS011;51482;47.014;7.652;2023-07-31T12:39:19;4.25;;;2.17;;
64950;SDS011;51482;47.014;7.652;2023-07-31T12:41:44;2.55;;;2.00;;
64950;SDS011;51482;47.014;7.652;2023-07-31T12:44:10;4.07;;;2.33;;
64950;SDS011;51482;47.014;7.652;2023-07-31T12:46:35;4.45;;;2.00;;
64950;SDS011;51482;47.014;7.652;2023-07-31T12:49:01;3.35;;;2.10;;
64950;SDS011;51482;47.014;7.652;2023-07-31T12:51:27;2.42;;;2.20;;
64950;SDS011;51482;47.014;7.652;2023-07-31T12:53:53;3.90;;;2.50;;
64950;SDS011;51482;47.014;7.652;2023-07-31T12:56:18;3.88;;;2.00;;
64950;SDS011;51482;47.014;7.652;2023-07-31T12:58:44;2.30;;;2.10;;
64950;SDS011;51482;47.014;7.652;2023-07-31T13:01:09;4.25;;;2.20;;
64950;SDS011;51482;47.014;7.652;2023-07-31T13:03:35;2.30;;;2.10;;
64950;SDS011;51482;47.014;7.652;2023-07-31T13:06:00;4.25;;;2.13;;
64950;SDS011;51482;47.014;7.652;2023-07-31T13:08:26;3.10;;;2.25;;
64950;SDS011;51482;47.014;7.652;2023-07-31T13:10:52;2.65;;;1.90;;
64950;SDS011;51482;47.014;7.652;2023-07-31T13:13:17;2.75;;;1.88;;
64950;SDS011;51482;47.014;7.652;2023-07-31T13:15:43;3.90;;;2.17;;
64950;SDS011;51482;47.014;7.652;2023-07-31T13:18:09;3.33;;;2.03;;
64950;SDS011;51482;47.014;7.652;2023-07-31T13:20:35;3.00;;;1.70;;
64950;SDS011;51482;47.014;7.652;2023-07-31T13:23:00;1.92;;;1.75;;
64950;SDS011;51482;47.014;7.652;2023-07-31T13:25:26;3.15;;;2.10;;
64950;SDS011;51482;47.014;7.652;2023-07-31T13:27:52;3.03;;;2.20;;
64950;SDS011;51482;47.014;7.652;2023-07-31T13:30:17;3.78;;;2.45;;
64950;SDS011;51482;47.014;7.652;2023-07-31T13:32:43;2.20;;;1.90;;
64950;SDS011;51482;47.014;7.652;2023-07-31T13:35:09;2.03;;;1.83;;
64950;SDS011;51482;47.014;7.652;2023-07-31T13:37:36;2.58;;;2.20;;
64950;SDS011;51482;47.014;7.652;2023-07-31T13:40:01;2.13;;;1.83;;
64950;SDS011;51482;47.014;7.652;2023-07-31T13:42:29;2.50;;;2.15;;
64950;SDS011;51482;47.014;7.652;2023-07-31T13:44:56;2.28;;;2.00;;
64950;SDS011;51482;47.014;7.652;2023-07-31T13:47:21;3.83;;;3.42;;
64950;SDS011;51482;47.014;7.652;2023-07-31T13:49:47;2.60;;;2.30;;
64950;SDS011;51482;47.014;7.652;2023-07-31T13:52:12;3.45;;;2.38;;
64950;SDS011;51482;47.014;7.652;2023-07-31T13:54:38;2.90;;;2.50;;
64950;SDS011;51482;47.014;7.652;2023-07-31T13:57:03;2.72;;;2.20;;
64950;SDS011;51482;47.014;7.652;2023-07-31T13:59:29;3.92;;;2.45;;
64950;SDS011;51482;47.014;7.652;2023-07-31T14:01:55;2.80;;;2.40;;
64950;SDS011;51482;47.014;7.652;2023-07-31T14:04:20;2.95;;;2.65;;
64950;SDS011;51482;47.014;7.652;2023-07-31T14:06:46;2.92;;;2.63;;
64950;SDS011;51482;47.014;7.652;2023-07-31T14:09:13;2.88;;;2.50;;
64950;SDS011;51482;47.014;7.652;2023-07-31T14:11:39;3.03;;;2.47;;
64950;SDS011;51482;47.014;7.652;2023-07-31T14:14:04;3.40;;;2.75;;
64950;SDS011;51482;47.014;7.652;2023-07-31T14:16:30;3.65;;;3.00;;
64950;SDS011;51482;47.014;7.652;2023-07-31T14:18:56;3.90;;;3.10;;
64950;SDS011;51482;47.014;7.652;2023-07-31T14:21:23;3.22;;;2.75;;
64950;SDS011;51482;47.014;7.652;2023-07-31T14:23:50;3.92;;;3.13;;
64950;SDS011;51482;47.014;7.652;2023-07-31T14:26:15;4.35;;;3.05;;
64950;SDS011;51482;47.014;7.652;2023-07-31T14:28:41;3.30;;;2.95;;
64950;SDS011;51482;47.014;7.652;2023-07-31T14:31:07;4.20;;;3.10;;
64950;SDS011;51482;47.014;7.652;2023-07-31T14:33:32;3.30;;;3.00;;
64950;SDS011;51482;47.014;7.652;2023-07-31T14:35:58;4.25;;;2.80;;
64950;SDS011;51482;47.014;7.652;2023-07-31T14:38:24;5.25;;;3.47;;
64950;SDS011;51482;47.014;7.652;2023-07-31T14:40:51;4.97;;;3.20;;
64950;SDS011;51482;47.014;7.652;2023-07-31T14:43:16;5.75;;;2.88;;
64950;SDS011;51482;47.014;7.652;2023-07-31T14:45:42;3.78;;;3.22;;
64950;SDS011;51482;47.014;7.652;2023-07-31T14:48:08;4.68;;;3.25;;
64950;SDS011;51482;47.014;7.652;2023-07-31T14:50:33;3.97;;;3.28;;